createdAt,value
2018-10-03T00:02:14.153Z,9.92
2018-10-03T00:03:40.793Z,9.93
2018-10-03T00:05:07.715Z,9.95
2018-10-03T00:06:34.044Z,9.92
2018-10-03T00:08:01.376Z,9.90
2018-10-03T00:09:28.693Z,9.87
2018-10-03T00:10:57.074Z,9.88
2018-10-03T00:12:23.903Z,9.83
2018-10-03T00:13:51.331Z,9.81
2018-10-03T00:15:18.330Z,9.77
2018-10-03T00:16:44.522Z,9.75
2018-10-03T00:18:11.555Z,9.73
2018-10-03T00:19:39.347Z,9.71
2018-10-03T00:21:06.564Z,9.70
2018-10-03T00:22:32.764Z,9.69
2018-10-03T00:24:01.115Z,9.67
2018-10-03T00:25:28.446Z,9.65
2018-10-03T00:26:55.649Z,9.63
2018-10-03T00:39:59.863Z,9.78
2018-10-03T00:41:27.499Z,9.80
2018-10-03T00:42:53.766Z,9.82
2018-10-03T00:44:21.060Z,9.82
2018-10-03T00:45:48.371Z,9.83
2018-10-03T00:47:16.570Z,9.82
2018-10-03T00:48:42.786Z,9.79
2018-10-03T00:50:11.121Z,9.77
2018-10-03T00:51:37.413Z,9.77
2018-10-03T00:53:04.756Z,9.76
2018-10-03T00:54:31.980Z,9.78
2018-10-03T00:55:59.936Z,9.77
2018-10-03T00:57:27.244Z,9.77
2018-10-03T00:58:54.580Z,9.78
2018-10-03T01:06:20.213Z,9.87
2018-10-03T01:07:46.444Z,9.91
2018-10-03T01:09:13.474Z,9.94
2018-10-03T01:10:40.770Z,9.97
2018-10-03T01:12:08.094Z,9.99
2018-10-03T01:13:34.229Z,9.98
2018-10-03T01:15:01.353Z,9.98
2018-10-03T01:16:29.814Z,9.99
2018-10-03T01:17:56.907Z,9.98
2018-10-03T01:19:23.150Z,9.98
2018-10-03T01:20:51.481Z,9.98
2018-10-03T01:22:18.704Z,9.98
2018-10-03T01:23:46.017Z,10.00
2018-10-03T01:25:12.416Z,10.01
2018-10-03T01:26:39.820Z,10.00
2018-10-03T01:28:10.081Z,10.01
2018-10-03T01:29:34.434Z,10.03
2018-10-03T01:31:01.765Z,10.03
2018-10-03T01:32:28.777Z,10.03
2018-10-03T01:33:56.095Z,10.04
2018-10-03T07:57:13.404Z,11.52
2018-10-03T07:58:41.991Z,11.53
2018-10-03T08:00:07.216Z,11.54
2018-10-03T08:01:33.454Z,11.52
2018-10-03T08:03:01.724Z,11.53
2018-10-03T08:04:27.899Z,11.53
2018-10-03T08:05:55.379Z,11.54
2018-10-03T08:07:22.847Z,11.58
2018-10-03T08:08:51.091Z,11.61
2018-10-03T08:10:17.382Z,11.60
2018-10-03T08:11:44.778Z,11.60
2018-10-03T08:13:12.524Z,11.58
2018-10-03T08:14:39.741Z,11.53
2018-10-03T08:16:05.619Z,11.53
2018-10-03T08:17:32.849Z,11.55
2018-10-03T08:19:00.191Z,11.57
2018-10-03T08:20:27.421Z,11.58
2018-10-03T08:21:54.593Z,11.61
2018-10-03T08:23:23.096Z,11.64
2018-10-03T08:24:50.210Z,11.64
2018-10-03T08:26:16.499Z,11.63
2018-10-03T08:27:43.776Z,11.65
2018-10-03T08:29:11.749Z,11.71
2018-10-03T08:30:38.210Z,11.76
2018-10-03T08:32:06.512Z,11.81
2018-10-03T08:33:32.910Z,11.85
2018-10-03T08:35:01.369Z,11.88
2018-10-03T08:36:28.803Z,11.90
2018-10-03T08:37:55.298Z,11.89
2018-10-03T08:39:23.708Z,11.84
2018-10-03T08:40:51.041Z,11.83
2018-10-03T08:42:17.198Z,11.81
2018-10-03T08:43:45.475Z,11.81
2018-10-03T08:45:11.628Z,11.83
2018-10-03T08:46:38.980Z,11.82
2018-10-03T08:48:07.041Z,11.82
2018-10-03T08:49:33.454Z,11.78
2018-10-03T08:51:01.893Z,11.75
2018-10-03T08:52:28.333Z,11.74
2018-10-03T08:53:56.733Z,11.70
2018-10-03T08:55:24.165Z,11.68
2018-10-03T08:56:51.092Z,11.68
2018-10-03T08:58:17.332Z,11.67
2018-10-03T08:59:44.590Z,11.69
2018-10-03T09:01:12.650Z,11.69
2018-10-03T09:02:39.853Z,11.71
2018-10-03T09:04:05.931Z,11.70
2018-10-03T09:05:32.980Z,11.67
2018-10-03T09:07:00.188Z,11.65
2018-10-03T09:08:28.346Z,11.65
2018-10-03T09:09:54.787Z,11.65
2018-10-03T09:11:23.101Z,11.71
2018-10-03T09:12:50.461Z,11.71
2018-10-03T09:14:16.737Z,11.71
2018-10-03T09:15:44.038Z,11.70
2018-10-03T09:17:12.277Z,11.68
2018-10-03T09:18:39.881Z,11.65
2018-10-03T09:20:05.857Z,11.66
2018-10-03T09:21:34.288Z,11.66
2018-10-03T09:23:01.527Z,11.71
2018-10-03T09:24:29.086Z,11.75
2018-10-03T09:25:56.140Z,11.82
2018-10-03T09:27:22.365Z,11.90
2018-10-03T09:28:50.627Z,11.98
2018-10-03T09:30:17.098Z,12.05
2018-10-03T09:31:45.271Z,12.12
2018-10-03T09:33:11.310Z,12.18
2018-10-03T09:34:38.793Z,12.22
2018-10-03T09:36:07.211Z,12.28
2018-10-03T09:37:33.418Z,12.31
2018-10-03T09:39:01.861Z,12.31
2018-10-03T09:40:28.995Z,12.31
2018-10-03T09:41:55.477Z,12.31
2018-10-03T09:43:23.820Z,12.31
2018-10-03T09:44:51.323Z,12.31
2018-10-03T09:46:17.549Z,12.31
2018-10-03T09:47:45.069Z,12.31
2018-10-03T09:49:13.170Z,12.34
2018-10-03T09:50:40.463Z,12.38
2018-10-03T09:52:06.970Z,12.39
2018-10-03T09:53:34.318Z,12.41
2018-10-03T09:55:02.728Z,12.43
2018-10-03T09:56:29.098Z,12.47
2018-10-03T09:57:57.376Z,12.49
2018-10-03T09:59:24.744Z,12.47
2018-10-03T10:00:51.195Z,12.47
2018-10-03T10:02:18.344Z,12.46
2018-10-03T10:03:46.509Z,12.47
2018-10-03T10:05:12.746Z,12.47
2018-10-03T10:06:41.222Z,12.49
2018-10-03T10:08:08.131Z,12.47
2018-10-03T10:09:35.559Z,12.43
2018-10-03T10:11:03.049Z,12.44
2018-10-03T10:12:30.120Z,12.45
2018-10-03T10:13:56.496Z,12.46
2018-10-03T10:15:24.027Z,12.46
2018-10-03T10:16:52.339Z,12.44
2018-10-03T10:18:19.603Z,12.45
2018-10-03T10:19:45.819Z,12.47
2018-10-03T10:21:13.046Z,12.51
2018-10-03T10:22:40.431Z,12.51
2018-10-03T10:24:08.953Z,12.54
2018-10-03T10:25:36.129Z,12.61
2018-10-03T10:27:03.641Z,12.65
2018-10-03T10:28:29.798Z,12.69
2018-10-03T10:29:57.122Z,12.72
2018-10-03T10:31:25.499Z,12.75
2018-10-03T10:32:52.814Z,12.79
2018-10-03T10:34:19.088Z,12.78
2018-10-03T10:35:46.071Z,12.77
2018-10-03T10:37:14.186Z,12.81
2018-10-03T10:38:41.819Z,12.87
2018-10-03T10:40:11.439Z,12.91
2018-10-03T10:41:36.948Z,12.96
2018-10-03T10:43:04.190Z,13.03
2018-10-03T10:44:31.733Z,13.05
2018-10-03T10:45:57.861Z,13.02
2018-10-03T10:47:25.081Z,13.06
2018-10-03T10:48:52.147Z,13.03
2018-10-03T10:50:20.547Z,13.03
2018-10-03T10:51:46.853Z,13.07
2018-10-03T10:53:14.123Z,13.00
2018-10-03T10:54:42.345Z,13.01
2018-10-03T10:56:09.753Z,13.10
2018-10-03T10:57:37.122Z,13.21
2018-10-03T10:59:03.485Z,13.25
2018-10-03T11:00:31.983Z,13.24
2018-10-03T11:01:58.296Z,13.26
2018-10-03T11:03:26.767Z,13.30
2018-10-03T11:04:53.106Z,13.40
2018-10-03T11:06:20.762Z,13.53
2018-10-03T11:07:47.878Z,13.63
2018-10-03T11:09:16.078Z,13.66
2018-10-03T11:10:42.469Z,13.80
2018-10-03T11:12:10.126Z,13.90
2018-10-03T11:13:38.331Z,14.08
2018-10-03T11:15:05.988Z,14.24
2018-10-03T11:16:33.060Z,14.42
2018-10-03T11:18:00.556Z,14.63
2018-10-03T11:19:27.106Z,14.76
2018-10-03T11:20:55.448Z,14.87
2018-10-03T11:22:21.808Z,15.02
2018-10-03T11:23:50.440Z,15.12
2018-10-03T11:25:17.768Z,15.24
2018-10-03T11:26:43.906Z,15.36
2018-10-03T11:28:12.175Z,15.45
2018-10-03T11:29:38.551Z,15.61
2018-10-03T11:31:07.114Z,15.73
2018-10-03T11:32:33.528Z,15.74
2018-10-03T11:34:00.860Z,15.78
2018-10-03T11:35:29.245Z,15.87
2018-10-03T11:36:55.523Z,15.95
2018-10-03T11:38:22.957Z,15.91
2018-10-03T11:39:50.207Z,15.91
2018-10-03T11:41:18.667Z,15.87
2018-10-03T11:42:46.281Z,15.89
2018-10-03T11:44:12.641Z,15.92
2018-10-03T11:45:40.936Z,15.99
2018-10-03T11:47:08.485Z,16.08
2018-10-03T11:48:34.879Z,16.06
2018-10-03T11:50:03.505Z,16.05
2018-10-03T11:51:30.949Z,16.14
2018-10-03T11:52:57.422Z,16.24
2018-10-03T11:54:24.788Z,16.27
2018-10-03T11:55:52.279Z,16.41
2018-10-03T11:57:20.554Z,16.39
2018-10-03T11:58:46.836Z,16.38
2018-10-03T12:00:15.178Z,16.39
2018-10-03T12:01:41.531Z,16.55
2018-10-03T12:03:10.133Z,16.32
2018-10-03T12:04:36.281Z,16.21
2018-10-03T12:06:03.695Z,16.17
2018-10-03T12:07:30.839Z,16.13
2018-10-03T12:08:59.417Z,16.22
2018-10-03T12:10:25.606Z,16.14
2018-10-03T12:11:52.950Z,15.97
2018-10-03T12:13:21.456Z,15.86
2018-10-03T12:14:48.914Z,15.90
2018-10-03T12:16:15.501Z,15.94
2018-10-03T12:17:43.653Z,15.89
2018-10-03T12:19:09.997Z,15.70
2018-10-03T12:20:37.508Z,15.59
2018-10-03T12:22:05.861Z,15.37
2018-10-03T12:23:32.257Z,15.48
2018-10-03T12:25:00.734Z,15.65
2018-10-03T12:26:27.032Z,15.61
2018-10-03T12:27:55.628Z,15.56
2018-10-03T12:29:23.134Z,15.55
2018-10-03T12:30:50.488Z,15.69
2018-10-03T12:32:16.631Z,15.67
2018-10-03T12:33:44.060Z,15.67
2018-10-03T12:35:11.328Z,15.55
2018-10-03T12:36:38.751Z,15.45
2018-10-03T12:38:07.105Z,15.42
2018-10-03T12:39:34.736Z,15.27
2018-10-03T12:41:01.880Z,15.13
2018-10-03T12:42:28.225Z,14.96
2018-10-03T12:43:56.632Z,14.84
2018-10-03T12:45:24.075Z,14.84
2018-10-03T12:46:51.461Z,14.91
2018-10-03T12:48:19.005Z,15.01
2018-10-03T12:49:46.134Z,15.23
2018-10-03T12:51:13.486Z,15.37
2018-10-03T12:52:40.690Z,15.54
2018-10-03T12:54:06.967Z,15.56
2018-10-03T12:55:34.336Z,15.57
2018-10-03T12:57:01.795Z,15.69
2018-10-03T12:58:29.385Z,15.75
2018-10-03T12:59:57.683Z,15.88
2018-10-03T13:01:25.320Z,15.82
2018-10-03T13:02:51.662Z,15.76
2018-10-03T13:04:18.904Z,15.69
2018-10-03T13:05:46.434Z,15.70
2018-10-03T13:07:13.766Z,15.79
2018-10-03T13:08:41.022Z,15.87
2018-10-03T13:10:09.402Z,15.98
2018-10-03T13:11:36.780Z,16.03
2018-10-03T13:13:04.006Z,16.23
2018-10-03T13:14:31.616Z,16.29
2018-10-03T13:15:58.916Z,16.20
2018-10-03T13:17:25.182Z,16.05
2018-10-03T13:18:53.552Z,15.91
2018-10-03T13:20:22.809Z,15.77
2018-10-03T13:21:48.438Z,15.85
2018-10-03T13:23:14.565Z,15.93
2018-10-03T13:24:42.838Z,15.99
2018-10-03T13:26:10.253Z,16.05
2018-10-03T13:27:37.919Z,16.02
2018-10-03T13:29:05.211Z,15.96
2018-10-03T13:30:31.577Z,15.90
2018-10-03T13:31:59.100Z,15.69
2018-10-03T13:33:27.525Z,15.67
2018-10-03T13:34:54.868Z,15.59
2018-10-03T13:36:22.295Z,15.55
2018-10-03T13:37:49.770Z,15.47
2018-10-03T13:39:16.178Z,15.46
2018-10-03T13:40:43.486Z,15.57
2018-10-03T13:42:11.665Z,15.70
2018-10-03T13:43:38.103Z,15.83
2018-10-03T13:45:05.176Z,15.94
2018-10-03T13:46:33.671Z,16.03
2018-10-03T13:48:00.148Z,16.06
2018-10-03T13:49:28.576Z,16.11
2018-10-03T13:50:56.120Z,15.98
2018-10-03T13:52:22.408Z,15.99
2018-10-03T13:53:50.788Z,15.97
2018-10-03T13:55:18.485Z,15.83
2018-10-03T13:56:44.769Z,15.88
2018-10-03T13:58:12.909Z,15.91
2018-10-03T13:59:39.446Z,15.93
2018-10-03T14:01:07.762Z,16.01
2018-10-03T14:02:34.967Z,16.13
2018-10-03T14:04:02.533Z,16.23
2018-10-03T14:05:28.852Z,16.27
2018-10-03T14:06:57.367Z,16.35
2018-10-03T14:08:23.582Z,16.34
2018-10-03T14:09:50.938Z,16.32
2018-10-03T14:11:19.189Z,16.34
2018-10-03T14:12:46.582Z,16.23
2018-10-03T14:14:13.928Z,16.13
2018-10-03T14:15:41.333Z,16.04
2018-10-03T14:17:07.870Z,15.91
2018-10-03T14:18:36.143Z,15.80
2018-10-03T14:20:03.307Z,15.69
2018-10-03T14:21:30.725Z,15.50
2018-10-03T14:22:57.280Z,15.32
2018-10-03T14:24:25.718Z,15.28
2018-10-03T14:25:52.042Z,15.14
2018-10-03T14:27:19.194Z,15.05
2018-10-03T14:28:46.503Z,14.89
2018-10-03T14:30:14.950Z,14.76
2018-10-03T14:31:41.424Z,14.48
2018-10-03T14:33:08.914Z,14.35
2018-10-03T14:34:36.283Z,14.19
2018-10-03T14:36:03.500Z,14.08
2018-10-03T14:37:30.868Z,13.98
2018-10-03T14:38:59.115Z,13.90
2018-10-03T14:40:25.437Z,13.81
2018-10-03T14:41:52.929Z,13.80
2018-10-03T14:43:20.230Z,13.81
2018-10-03T14:44:48.668Z,13.77
2018-10-03T14:46:16.027Z,13.72
2018-10-03T14:47:43.303Z,13.75
2018-10-03T14:49:10.736Z,13.77
2018-10-03T14:50:36.968Z,13.77
2018-10-03T14:52:04.407Z,13.78
2018-10-03T14:53:32.780Z,13.78
2018-10-03T14:54:59.196Z,13.73
2018-10-03T14:56:27.298Z,13.76
2018-10-03T14:57:54.781Z,13.80
2018-10-03T14:59:21.859Z,13.79
2018-10-03T15:00:48.788Z,13.80
2018-10-03T15:02:16.232Z,13.81
2018-10-03T15:03:42.485Z,13.84
2018-10-03T15:05:10.013Z,13.85
2018-10-03T15:06:37.346Z,13.90
2018-10-03T15:08:04.817Z,13.92
2018-10-03T15:09:32.803Z,13.97
2018-10-03T15:11:00.146Z,13.97
2018-10-03T15:12:26.537Z,14.01
2018-10-03T15:13:54.004Z,14.07
2018-10-03T15:15:22.356Z,14.12
2018-10-03T15:16:49.641Z,14.14
2018-10-03T15:18:16.074Z,14.18
2018-10-03T15:19:43.590Z,14.18
2018-10-03T15:21:10.808Z,14.23
2018-10-03T15:22:38.124Z,14.26
2018-10-03T15:24:06.511Z,14.25
2018-10-03T15:25:34.038Z,14.20
2018-10-03T15:27:00.029Z,14.20
2018-10-03T15:28:27.307Z,14.18
2018-10-03T15:29:55.784Z,14.18
2018-10-03T15:31:22.180Z,14.21
2018-10-03T15:32:50.566Z,14.23
2018-10-03T15:34:17.058Z,14.20
2018-10-03T15:35:44.343Z,14.19
2018-10-03T15:37:11.528Z,14.15
2018-10-03T15:38:38.977Z,14.10
2018-10-03T15:40:06.490Z,14.06
2018-10-03T15:41:34.884Z,14.03
2018-10-03T15:43:00.921Z,14.02
2018-10-03T15:44:29.319Z,14.01
2018-10-03T15:45:56.451Z,13.97
2018-10-03T15:47:23.935Z,13.93
2018-10-03T15:48:51.505Z,13.84
2018-10-03T15:50:17.907Z,13.82
2018-10-03T15:51:46.310Z,13.76
2018-10-03T15:53:13.574Z,13.71
2018-10-03T15:54:40.940Z,13.67
2018-10-03T15:56:08.239Z,13.58
2018-10-03T15:57:34.666Z,13.48
2018-10-03T15:59:01.948Z,13.44
2018-10-03T16:00:35.385Z,13.38
2018-10-03T16:01:56.215Z,13.33
2018-10-03T16:03:24.608Z,13.31
2018-10-03T16:04:51.639Z,13.26
2018-10-03T16:06:17.654Z,13.23
2018-10-03T16:07:45.997Z,13.23
2018-10-03T16:09:12.278Z,13.24
2018-10-03T16:10:40.515Z,13.26
2018-10-03T16:12:07.807Z,13.22
2018-10-03T16:13:35.097Z,13.18
2018-10-03T16:15:02.312Z,13.18
2018-10-03T16:16:29.635Z,13.17
2018-10-03T16:17:56.058Z,13.14
2018-10-03T16:19:23.094Z,13.11
2018-10-03T16:20:51.421Z,13.07
2018-10-03T16:22:18.807Z,13.05
2018-10-03T16:23:45.254Z,13.03
2018-10-03T16:25:12.271Z,13.01
2018-10-03T16:26:40.674Z,12.98
2018-10-03T16:28:07.102Z,12.94
2018-10-03T16:29:34.413Z,12.88
2018-10-03T16:31:01.847Z,12.83
2018-10-03T16:32:30.405Z,12.77
2018-10-03T16:33:57.843Z,12.70
2018-10-03T16:35:23.701Z,12.61
2018-10-03T16:36:50.813Z,12.57
2018-10-03T16:38:18.102Z,12.50
2018-10-03T16:39:46.370Z,12.49
2018-10-03T16:41:13.897Z,12.50
2018-10-03T16:42:40.328Z,12.51
2018-10-03T16:44:07.192Z,12.46
2018-10-03T16:45:35.191Z,12.47
2018-10-03T16:47:02.630Z,12.45
2018-10-03T16:48:28.964Z,12.46
2018-10-03T16:49:56.275Z,12.46
2018-10-03T16:51:24.319Z,12.47
2018-10-03T16:52:51.449Z,12.47
2018-10-03T16:54:17.814Z,12.48
2018-10-03T16:55:44.985Z,12.48
2018-10-03T16:57:12.187Z,12.46
2018-10-03T16:58:40.526Z,12.45
2018-10-03T17:00:06.879Z,12.43
2018-10-03T17:01:35.286Z,12.41
2018-10-03T17:03:02.359Z,12.35
2018-10-03T17:04:29.679Z,12.24
2018-10-03T17:05:56.982Z,12.17
2018-10-03T17:07:23.246Z,12.15
2018-10-03T17:08:50.390Z,12.14
2018-10-03T17:10:18.641Z,12.07
2018-10-03T17:11:44.914Z,12.06
2018-10-03T17:13:13.310Z,12.04
2018-10-03T17:14:40.704Z,12.01
2018-10-03T17:16:07.844Z,11.99
2018-10-03T17:17:33.869Z,12.00
2018-10-03T17:19:02.224Z,12.02
2018-10-03T17:20:28.230Z,12.02
2018-10-03T17:21:56.236Z,12.00
2018-10-03T17:23:23.562Z,11.95
2018-10-03T17:24:49.634Z,11.95
2018-10-03T17:26:16.903Z,11.98
2018-10-03T17:27:44.338Z,11.98
2018-10-03T17:29:12.416Z,11.96
2018-10-03T17:30:39.384Z,11.89
2018-10-03T17:32:05.662Z,11.82
2018-10-03T17:33:34.051Z,11.81
2018-10-03T17:35:00.271Z,11.83
2018-10-03T17:36:28.666Z,11.80
2018-10-03T17:37:54.976Z,11.78
2018-10-03T17:39:23.451Z,11.77
2018-10-03T17:40:49.647Z,11.74
2018-10-03T17:42:16.952Z,11.71
2018-10-03T17:43:45.234Z,11.64
2018-10-03T17:45:11.527Z,11.61
2018-10-03T17:46:39.640Z,11.59
2018-10-03T17:48:05.808Z,11.55
2018-10-03T17:49:33.114Z,11.54
2018-10-03T17:51:00.533Z,11.48
2018-10-03T17:52:28.823Z,11.46
2018-10-03T17:53:55.208Z,11.44
2018-10-03T17:55:23.590Z,11.43
2018-10-03T17:56:50.050Z,11.42
2018-10-03T17:58:18.462Z,11.40
2018-10-03T17:59:45.728Z,11.37
2018-10-03T18:01:12.945Z,11.36
2018-10-03T18:02:40.238Z,11.36
2018-10-03T18:04:06.363Z,11.36
2018-10-03T18:05:34.858Z,11.35
2018-10-03T18:07:02.133Z,11.31
2018-10-03T18:08:29.439Z,11.27
2018-10-03T18:09:55.771Z,11.23
2018-10-03T18:11:24.021Z,11.22
2018-10-03T18:12:50.226Z,11.20
2018-10-03T18:14:17.470Z,11.23
2018-10-03T18:15:45.757Z,11.22
2018-10-03T18:17:12.979Z,11.23
2018-10-03T18:18:40.058Z,11.26
2018-10-03T18:20:06.251Z,11.29
2018-10-03T18:21:33.220Z,11.26
2018-10-03T18:23:01.072Z,11.24
2018-10-03T18:24:27.144Z,11.25
2018-10-03T18:25:55.480Z,11.27
2018-10-03T18:27:22.848Z,11.28
2018-10-03T18:28:48.759Z,11.28
2018-10-03T18:30:15.972Z,11.27
2018-10-03T18:31:43.233Z,11.27
2018-10-03T18:33:11.466Z,11.26
2018-10-03T18:34:37.614Z,11.25
2018-10-03T18:36:05.560Z,11.24
2018-10-03T18:37:31.801Z,11.23
2018-10-03T18:39:00.336Z,11.23
2018-10-03T18:40:26.662Z,11.20
2018-10-03T18:41:54.945Z,11.17
2018-10-03T18:43:22.320Z,11.15
2018-10-03T18:44:48.374Z,11.15
2018-10-03T18:46:16.304Z,11.13
2018-10-03T18:47:43.274Z,11.13
2018-10-03T18:49:10.512Z,11.14
2018-10-03T18:50:36.733Z,11.16
2018-10-03T18:52:05.189Z,11.16
2018-10-03T18:53:32.458Z,11.15
2018-10-03T18:54:58.858Z,11.12
2018-10-03T18:56:27.365Z,11.08
2018-10-03T18:57:54.722Z,11.08
2018-10-03T18:59:22.077Z,11.05
2018-10-03T19:00:49.027Z,11.05
2018-10-03T19:02:14.847Z,11.04
2018-10-03T19:03:42.838Z,11.01
2018-10-03T19:05:10.078Z,11.00
2018-10-03T19:06:36.450Z,10.98
2018-10-03T19:08:04.598Z,10.95
2018-10-03T19:09:32.109Z,10.95
2018-10-03T19:10:58.498Z,10.94
2018-10-03T19:12:26.926Z,10.91
2018-10-03T19:13:54.002Z,10.92
2018-10-03T19:15:21.422Z,10.87
2018-10-03T19:16:47.814Z,10.87
2018-10-03T19:18:16.067Z,10.83
2018-10-03T19:19:42.336Z,10.79
2018-10-03T19:21:10.631Z,10.79
2018-10-03T19:22:36.971Z,10.79
2018-10-03T19:24:05.353Z,10.79
2018-10-03T19:25:31.735Z,10.80
2018-10-03T19:26:59.663Z,10.82
2018-10-03T19:28:26.958Z,10.82
2018-10-03T19:29:53.291Z,10.83
2018-10-03T19:31:20.548Z,10.84
2018-10-03T19:32:47.783Z,10.85
2018-10-03T19:34:15.903Z,10.87
2018-10-03T19:35:42.856Z,10.88
2018-10-03T19:37:08.900Z,10.85
2018-10-03T19:38:36.948Z,10.84
2018-10-03T19:40:04.179Z,10.85
2018-10-03T19:41:30.592Z,10.86
2018-10-03T19:42:58.763Z,10.88
2018-10-03T19:44:26.078Z,10.88
2018-10-03T19:45:52.514Z,10.86
2018-10-03T19:47:20.704Z,10.83
2018-10-03T19:48:46.936Z,10.78
2018-10-03T19:50:15.237Z,10.78
2018-10-03T19:51:42.346Z,10.81
2018-10-03T19:53:09.561Z,10.86
2018-10-03T19:54:37.031Z,10.85
2018-10-03T19:56:03.188Z,10.88
2018-10-03T19:57:31.080Z,10.91
2018-10-03T19:58:58.469Z,10.93
2018-10-03T20:00:24.816Z,10.95
2018-10-03T20:01:53.067Z,10.98
2018-10-03T20:03:19.478Z,10.96
2018-10-03T20:04:46.707Z,10.94
2018-10-03T20:06:13.746Z,10.93
2018-10-03T20:07:40.974Z,10.95
2018-10-03T20:09:09.364Z,10.94
2018-10-03T20:10:35.494Z,10.87
2018-10-03T20:12:02.913Z,10.83
2018-10-03T20:13:29.752Z,10.81
2018-10-03T20:14:58.138Z,10.82
2018-10-03T20:16:25.093Z,10.82
2018-10-03T20:17:52.425Z,10.83
2018-10-03T20:19:18.704Z,10.82
2018-10-03T20:20:45.944Z,10.82
2018-10-03T20:22:14.144Z,10.75
2018-10-03T20:23:41.344Z,10.75
2018-10-03T20:25:08.803Z,10.73
2018-10-03T20:26:35.171Z,10.74
2018-10-03T20:28:03.413Z,10.74
2018-10-03T20:29:29.848Z,10.69
2018-10-03T20:30:58.042Z,10.68
2018-10-03T20:32:23.837Z,10.67
2018-10-03T20:33:50.999Z,10.68
2018-10-03T20:35:19.107Z,10.67
2018-10-03T20:36:46.206Z,10.68
2018-10-03T20:38:13.472Z,10.69
2018-10-03T20:39:40.498Z,10.71
2018-10-03T20:41:07.450Z,10.71
2018-10-03T20:42:33.462Z,10.71
2018-10-03T20:44:01.745Z,10.69
2018-10-03T20:45:28.484Z,10.71
2018-10-03T20:46:55.643Z,10.69
2018-10-03T20:48:22.003Z,10.67
2018-10-03T20:49:50.234Z,10.67
2018-10-03T20:51:17.447Z,10.69
2018-10-03T20:52:44.749Z,10.69
2018-10-03T20:54:10.959Z,10.71
2018-10-03T20:55:38.251Z,10.71
2018-10-03T20:57:05.056Z,10.67
2018-10-03T20:58:32.470Z,10.63
2018-10-03T20:59:59.811Z,10.58
2018-10-03T21:01:27.054Z,10.58
2018-10-03T21:02:55.322Z,10.56
2018-10-03T21:04:21.766Z,10.51
2018-10-03T21:05:49.064Z,10.51
2018-10-03T21:07:17.186Z,10.46
2018-10-03T21:08:44.055Z,10.42
2018-10-03T21:10:10.994Z,10.37
2018-10-03T21:11:37.209Z,10.35
2018-10-03T21:13:04.598Z,10.35
2018-10-03T21:14:32.728Z,10.37
2018-10-03T21:15:58.654Z,10.36
2018-10-03T21:17:27.027Z,10.40
2018-10-03T21:18:53.224Z,10.41
2018-10-03T21:20:21.135Z,10.43
2018-10-03T21:21:47.395Z,10.44
2018-10-03T21:23:14.791Z,10.43
2018-10-03T21:24:42.899Z,10.40
2018-10-03T21:26:10.244Z,10.32
2018-10-03T21:27:36.457Z,10.29
2018-10-03T21:29:03.826Z,10.29
2018-10-03T21:30:31.105Z,10.26
2018-10-03T21:31:58.458Z,10.21
2018-10-03T21:33:25.582Z,10.21
2018-10-03T21:34:52.740Z,10.12
2018-10-03T21:36:20.621Z,10.09
2018-10-03T21:37:47.044Z,10.10
2018-10-03T21:39:15.235Z,10.11
2018-10-03T21:40:41.383Z,10.07
2018-10-03T21:42:08.092Z,10.04
2018-10-03T21:43:35.509Z,10.01
2018-10-03T21:45:03.871Z,9.98
2018-10-03T21:46:30.318Z,9.98
2018-10-03T21:47:57.349Z,9.94
2018-10-03T21:49:25.565Z,9.89
2018-10-03T21:50:52.756Z,9.88
2018-10-03T21:52:19.733Z,9.88
2018-10-03T21:53:45.668Z,9.87
2018-10-03T21:55:12.760Z,9.82
2018-10-03T21:56:40.659Z,9.77
2018-10-03T21:58:07.018Z,9.73
2018-10-03T21:59:35.341Z,9.69
2018-10-03T22:01:02.463Z,9.64
2018-10-03T22:02:29.265Z,9.63
2018-10-03T22:03:55.585Z,9.66
2018-10-03T22:05:22.829Z,9.68
2018-10-03T22:06:51.093Z,9.63
2018-10-03T22:08:17.144Z,9.56
2018-10-03T22:09:45.429Z,9.48
2018-10-03T22:11:11.784Z,9.41
2018-10-03T22:12:40.181Z,9.40
2018-10-03T22:14:07.479Z,9.37
2018-10-03T22:15:33.786Z,9.35
2018-10-03T22:17:02.299Z,9.29
2018-10-03T22:18:28.310Z,9.27
2018-10-03T22:19:55.384Z,9.26
2018-10-03T22:21:23.707Z,9.24
2018-10-03T22:22:51.124Z,9.26
2018-10-03T22:24:18.416Z,9.25
2018-10-03T22:25:44.691Z,9.20
2018-10-03T22:27:12.823Z,9.16
2018-10-03T22:28:39.134Z,9.19
2018-10-03T22:30:07.081Z,9.19
2018-10-03T22:31:32.992Z,9.18
2018-10-03T22:32:59.787Z,9.18
2018-10-03T22:34:27.081Z,9.17
2018-10-03T22:35:55.408Z,9.18
2018-10-03T22:37:22.797Z,9.18
2018-10-03T22:38:50.177Z,9.14
2018-10-03T22:40:17.409Z,9.09
2018-10-03T22:41:43.612Z,9.08
2018-10-03T22:43:10.489Z,9.11
2018-10-03T22:44:37.838Z,9.08
2018-10-03T22:46:05.053Z,9.10
2018-10-03T22:47:31.925Z,9.12
2018-10-03T22:48:59.252Z,9.14
2018-10-03T22:50:27.604Z,9.10
2018-10-03T22:51:54.868Z,9.04
2018-10-03T22:53:22.257Z,8.98
2018-10-03T22:54:49.367Z,8.95
2018-10-03T22:56:16.615Z,8.92
2018-10-03T22:57:42.926Z,8.93
2018-10-03T22:59:11.237Z,8.91
2018-10-03T23:00:37.190Z,8.92
2018-10-03T23:02:05.689Z,8.95
2018-10-03T23:03:31.972Z,8.97
2018-10-03T23:04:59.315Z,9.00
2018-10-03T23:06:27.577Z,9.01
2018-10-03T23:07:53.713Z,9.05
2018-10-03T23:09:21.879Z,9.09
2018-10-03T23:10:49.105Z,9.12
2018-10-03T23:12:15.269Z,9.13
2018-10-03T23:13:42.384Z,9.15
2018-10-03T23:15:09.755Z,9.20
2018-10-03T23:16:38.065Z,9.27
2018-10-03T23:18:05.238Z,9.32
2018-10-03T23:19:31.541Z,9.38
2018-10-03T23:20:59.882Z,9.42
2018-10-03T23:22:26.195Z,9.41
2018-10-03T23:23:53.490Z,9.39
2018-10-03T23:25:21.867Z,9.38
2018-10-03T23:26:49.184Z,9.36
2018-10-03T23:28:15.536Z,9.37
2018-10-03T23:29:42.525Z,9.37
2018-10-03T23:31:10.286Z,9.34
2018-10-03T23:32:36.487Z,9.34
2018-10-03T23:34:04.789Z,9.35
2018-10-03T23:35:32.045Z,9.34
2018-10-03T23:36:58.171Z,9.34
2018-10-03T23:38:26.579Z,9.33
2018-10-03T23:39:52.418Z,9.29
2018-10-03T23:41:19.545Z,9.29
2018-10-03T23:42:47.789Z,9.25
2018-10-03T23:44:15.133Z,9.21
